createdAt,value
2018-07-28T00:00:14.826Z,25.25
2018-07-28T00:00:55.404Z,25.25
2018-07-28T00:01:35.981Z,25.18
2018-07-28T00:02:16.632Z,25.31
2018-07-28T00:02:57.202Z,25.17
2018-07-28T00:03:37.759Z,25.16
2018-07-28T00:04:18.316Z,25.17
2018-07-28T00:04:58.889Z,25.17
2018-07-28T00:05:39.457Z,25.17
2018-07-28T00:06:20.025Z,25.21
2018-07-28T00:07:00.591Z,25.21
2018-07-28T00:07:41.194Z,25.22
2018-07-28T00:08:21.756Z,25.13
2018-07-28T00:09:02.341Z,25.1
2018-07-28T00:09:42.913Z,25.07
2018-07-28T00:10:23.498Z,25.08
2018-07-28T00:11:04.257Z,25.07
2018-07-28T00:11:51.585Z,25.01
2018-07-28T00:12:32.179Z,24.99
2018-07-28T00:13:12.853Z,25.03
2018-07-28T00:13:53.397Z,24.96
2018-07-28T00:14:34.005Z,24.92
2018-07-28T00:15:14.567Z,24.93
2018-07-28T00:15:55.136Z,24.89
2018-07-28T00:16:35.719Z,24.99
2018-07-28T00:17:16.395Z,24.89
2018-07-28T00:17:57.104Z,24.99
2018-07-28T00:18:37.665Z,24.92
2018-07-28T00:19:18.399Z,25.01
2018-07-28T00:19:59.099Z,24.96
2018-07-28T00:20:39.672Z,24.99
2018-07-28T00:21:20.201Z,24.95
2018-07-28T00:22:00.754Z,24.96
2018-07-28T00:22:41.340Z,24.95
2018-07-28T00:23:21.895Z,24.98
2018-07-28T00:24:02.469Z,24.98
2018-07-28T00:24:43.026Z,24.92
2018-07-28T00:25:23.653Z,24.93
2018-07-28T00:26:04.175Z,24.92
2018-07-28T00:26:44.758Z,24.93
2018-07-28T00:27:25.333Z,24.98
2018-07-28T00:28:05.877Z,24.96
2018-07-28T00:28:46.443Z,24.96
2018-07-28T00:29:26.998Z,24.95
2018-07-28T00:30:07.564Z,24.91
2018-07-28T00:30:48.144Z,24.95
2018-07-28T00:31:28.691Z,24.96
2018-07-28T00:32:09.255Z,24.98
2018-07-28T00:32:49.858Z,24.98
2018-07-28T00:33:30.446Z,24.96
2018-07-28T00:34:11.052Z,24.98
2018-07-28T00:34:51.587Z,24.99
2018-07-28T00:35:32.153Z,24.92
2018-07-28T00:36:12.730Z,24.99
2018-07-28T00:36:53.305Z,24.92
2018-07-28T00:37:33.869Z,25.01
2018-07-28T00:38:14.454Z,25.01
2018-07-28T00:38:55.057Z,24.96
2018-07-28T00:39:35.619Z,25.01
2018-07-28T00:40:16.181Z,24.98
2018-07-28T00:40:56.745Z,25.01
2018-07-28T00:41:37.337Z,24.98
2018-07-28T00:42:17.889Z,24.98
2018-07-28T00:42:58.452Z,24.95
2018-07-28T00:43:39.018Z,24.95
2018-07-28T00:44:19.626Z,24.98
2018-07-28T00:45:00.196Z,24.98
2018-07-28T00:45:40.768Z,24.98
2018-07-28T00:46:21.341Z,24.93
2018-07-28T00:47:01.914Z,24.99
2018-07-28T00:47:42.482Z,25.01
2018-07-28T00:48:23.064Z,24.96
2018-07-28T00:49:03.639Z,24.98
2018-07-28T00:49:44.206Z,24.96
2018-07-28T00:50:24.951Z,24.99
2018-07-28T00:51:05.359Z,24.96
2018-07-28T00:51:45.931Z,24.98
2018-07-28T00:52:26.499Z,24.91
2018-07-28T00:53:07.155Z,24.92
2018-07-28T00:53:47.702Z,24.89
2018-07-28T00:54:28.276Z,24.88
2018-07-28T00:55:08.835Z,24.95
2018-07-28T00:55:49.433Z,24.81
2018-07-28T00:56:29.989Z,24.78
2018-07-28T00:57:10.706Z,24.88
2018-07-28T00:57:51.277Z,24.76
2018-07-28T00:58:31.870Z,24.74
2018-07-28T00:59:12.434Z,24.78
2018-07-28T00:59:53.008Z,24.65
2018-07-28T01:00:33.587Z,24.69
2018-07-28T01:01:14.160Z,24.7
2018-07-28T01:01:54.704Z,24.57
2018-07-28T01:02:35.298Z,24.68
2018-07-28T01:03:15.862Z,24.63
2018-07-28T01:03:56.445Z,24.57
2018-07-28T01:04:37.005Z,24.65
2018-07-28T01:05:17.595Z,24.68
2018-07-28T01:05:58.168Z,24.63
2018-07-28T01:06:38.822Z,24.58
2018-07-28T01:07:19.413Z,24.61
2018-07-28T01:07:59.988Z,24.6
2018-07-28T01:08:40.572Z,24.61
2018-07-28T01:09:21.141Z,24.66
2018-07-28T01:10:01.758Z,24.61
2018-07-28T01:10:42.310Z,24.57
2018-07-28T01:11:22.877Z,24.55
2018-07-28T01:12:03.443Z,24.61
2018-07-28T01:12:44.014Z,24.53
2018-07-28T01:13:24.569Z,24.53
2018-07-28T01:14:05.141Z,24.54
2018-07-28T01:14:45.705Z,24.54
2018-07-28T01:15:26.274Z,24.48
2018-07-28T01:16:06.825Z,24.43
2018-07-28T01:16:47.399Z,24.4
2018-07-28T01:17:27.972Z,24.42
2018-07-28T01:18:08.623Z,24.47
2018-07-28T01:18:49.174Z,24.45
2018-07-28T01:19:29.746Z,24.42
2018-07-28T01:20:10.315Z,24.48
2018-07-28T01:20:50.888Z,24.42
2018-07-28T01:21:31.459Z,24.54
2018-07-28T01:22:12.079Z,24.42
2018-07-28T01:22:52.652Z,24.43
2018-07-28T01:23:33.216Z,24.43
2018-07-28T01:24:13.923Z,24.5
2018-07-28T01:24:54.505Z,24.45
2018-07-28T01:25:35.077Z,24.47
2018-07-28T01:26:15.646Z,24.53
2018-07-28T01:26:56.312Z,24.4
2018-07-28T01:27:36.874Z,24.58
2018-07-28T01:28:17.439Z,24.48
2018-07-28T01:28:57.991Z,24.45
2018-07-28T01:29:38.624Z,24.45
2018-07-28T01:30:19.214Z,24.54
2018-07-28T01:30:59.794Z,24.54
2018-07-28T01:31:40.367Z,24.47
2018-07-28T01:32:20.941Z,24.45
2018-07-28T01:33:01.507Z,24.45
2018-07-28T01:33:42.059Z,24.36
2018-07-28T01:34:22.622Z,24.33
2018-07-28T01:35:03.260Z,24.33
2018-07-28T01:35:43.843Z,24.33
2018-07-28T01:36:24.491Z,24.33
2018-07-28T01:37:05.040Z,24.3
2018-07-28T01:37:45.613Z,24.33
2018-07-28T01:38:26.186Z,24.3
2018-07-28T01:39:06.729Z,24.28
2018-07-28T01:39:47.326Z,24.28
2018-07-28T01:40:27.892Z,24.17
2018-07-28T01:41:08.463Z,24.2
2018-07-28T01:41:49.022Z,24.2
2018-07-28T01:42:29.589Z,24.18
2018-07-28T01:43:10.154Z,24.23
2018-07-28T01:43:50.786Z,24.16
2018-07-28T01:44:31.352Z,24.21
2018-07-28T01:45:11.950Z,24.21
2018-07-28T01:45:52.586Z,24.21
2018-07-28T01:46:33.135Z,24.2
2018-07-28T01:47:13.834Z,24.18
2018-07-28T01:47:54.577Z,24.33
2018-07-28T01:48:35.084Z,24.2
2018-07-28T01:49:15.731Z,24.21
2018-07-28T01:49:56.350Z,24.18
2018-07-28T01:50:36.917Z,24.17
2018-07-28T01:51:17.526Z,24.11
2018-07-28T01:51:58.089Z,24.18
2018-07-28T01:52:38.661Z,24.18
2018-07-28T01:53:19.230Z,24.18
2018-07-28T01:53:59.795Z,24.14
2018-07-28T01:54:40.406Z,24.17
2018-07-28T01:55:21.004Z,24.14
2018-07-28T01:56:01.615Z,24.21
2018-07-28T01:56:42.184Z,24.14
2018-07-28T01:57:22.756Z,24.1
2018-07-28T01:58:03.300Z,24.16
2018-07-28T01:58:43.865Z,24.13
2018-07-28T01:59:24.498Z,24.14
2018-07-28T02:00:05.083Z,24.02
2018-07-28T02:00:45.624Z,24.02
2018-07-28T02:01:26.204Z,24.03
2018-07-28T02:02:06.885Z,24.1
2018-07-28T02:02:47.494Z,24.11
2018-07-28T02:03:28.124Z,23.99
2018-07-28T02:04:08.758Z,24.1
2018-07-28T02:04:49.493Z,24.11
2018-07-28T02:05:30.042Z,24.11
2018-07-28T02:06:10.621Z,24.05
2018-07-28T02:06:51.179Z,24.13
2018-07-28T02:07:31.744Z,24.03
2018-07-28T02:08:12.300Z,24.08
2018-07-28T02:08:52.862Z,24.01
2018-07-28T02:09:33.491Z,23.99
2018-07-28T02:10:14.048Z,23.95
2018-07-28T02:10:54.614Z,24.01
2018-07-28T02:11:35.229Z,24.05
2018-07-28T02:12:15.812Z,24.01
2018-07-28T02:12:56.372Z,23.99
2018-07-28T02:13:36.946Z,23.91
2018-07-28T02:14:17.520Z,23.93
2018-07-28T02:14:58.085Z,23.93
2018-07-28T02:15:38.652Z,23.83
2018-07-28T02:16:19.222Z,23.84
2018-07-28T02:16:59.784Z,23.78
2018-07-28T02:17:40.343Z,23.83
2018-07-28T02:18:20.931Z,23.81
2018-07-28T02:19:01.507Z,23.86
2018-07-28T02:19:42.071Z,23.77
2018-07-28T02:20:22.688Z,23.86
2018-07-28T02:21:03.257Z,23.86
2018-07-28T02:21:43.816Z,23.84
2018-07-28T02:22:24.389Z,23.92
2018-07-28T02:23:05.006Z,23.91
2018-07-28T02:23:45.564Z,23.95
2018-07-28T02:24:26.139Z,23.87
2018-07-28T02:25:06.701Z,23.96
2018-07-28T02:25:47.281Z,23.93
2018-07-28T02:26:27.845Z,23.93
2018-07-28T02:27:08.409Z,23.98
2018-07-28T02:27:48.959Z,24.02
2018-07-28T02:28:29.525Z,24.05
2018-07-28T02:29:10.092Z,23.98
2018-07-28T02:29:50.650Z,23.98
2018-07-28T02:30:31.209Z,23.93
2018-07-28T02:31:11.829Z,23.98
2018-07-28T02:31:52.391Z,23.96
2018-07-28T02:32:32.951Z,23.98
2018-07-28T02:33:13.519Z,23.96
2018-07-28T02:33:54.165Z,24.02
2018-07-28T02:34:34.743Z,23.93
2018-07-28T02:35:15.305Z,23.95
2018-07-28T02:35:55.883Z,23.92
2018-07-28T02:36:36.480Z,23.95
2018-07-28T02:37:17.053Z,23.87
2018-07-28T02:37:57.631Z,23.92
2018-07-28T02:38:38.195Z,23.91
2018-07-28T02:39:18.872Z,23.86
2018-07-28T02:39:59.438Z,23.86
2018-07-28T02:40:40.016Z,23.86
2018-07-28T02:41:20.589Z,23.86
2018-07-28T02:42:01.160Z,23.86
2018-07-28T02:42:41.705Z,23.74
2018-07-28T02:43:22.323Z,23.84
2018-07-28T02:44:02.828Z,23.86
2018-07-28T02:44:43.487Z,23.86
2018-07-28T02:45:24.050Z,23.86
2018-07-28T02:46:04.618Z,23.8
2018-07-28T02:46:45.213Z,23.87
2018-07-28T02:47:25.823Z,23.84
2018-07-28T02:48:06.408Z,23.84
2018-07-28T02:48:46.953Z,23.73
2018-07-28T02:49:27.518Z,23.84
2018-07-28T02:50:08.151Z,23.81
2018-07-28T02:50:48.716Z,23.8
2018-07-28T02:51:29.288Z,23.76
2018-07-28T02:52:09.847Z,23.76
2018-07-28T02:52:50.493Z,23.74
2018-07-28T02:53:31.086Z,23.71
2018-07-28T02:54:11.659Z,23.73
2018-07-28T02:54:52.229Z,23.74
2018-07-28T02:55:32.797Z,23.66
2018-07-28T02:56:13.364Z,23.65
2018-07-28T02:56:53.943Z,23.63
2018-07-28T02:57:34.516Z,23.66
2018-07-28T02:58:15.127Z,23.62
2018-07-28T02:58:55.730Z,23.71
2018-07-28T02:59:36.288Z,23.61
2018-07-28T03:00:16.904Z,23.68
2018-07-28T03:00:57.450Z,23.66
2018-07-28T03:01:38.041Z,23.74
2018-07-28T03:02:18.595Z,23.68
2018-07-28T03:02:59.157Z,23.63
2018-07-28T03:03:39.726Z,23.63
2018-07-28T03:04:20.294Z,23.59
2018-07-28T03:05:00.853Z,23.61
2018-07-28T03:05:41.413Z,23.65
2018-07-28T03:06:22.011Z,23.62
2018-07-28T03:07:02.564Z,23.66
2018-07-28T03:07:43.149Z,23.63
2018-07-28T03:08:23.731Z,23.65
2018-07-28T03:09:04.299Z,23.62
2018-07-28T03:09:44.885Z,23.56
2018-07-28T03:10:25.445Z,23.62
2018-07-28T03:11:06.022Z,23.61
2018-07-28T03:11:46.747Z,23.58
2018-07-28T03:12:27.327Z,23.54
2018-07-28T03:13:07.923Z,23.54
2018-07-28T03:13:48.479Z,23.59
2018-07-28T03:14:29.057Z,23.54
2018-07-28T03:15:09.625Z,23.54
2018-07-28T03:15:50.205Z,23.58
2018-07-28T03:16:30.767Z,23.58
2018-07-28T03:17:11.358Z,23.62
2018-07-28T03:17:51.924Z,23.55
2018-07-28T03:18:32.504Z,23.66
2018-07-28T03:19:13.076Z,23.61
2018-07-28T03:19:53.637Z,23.56
2018-07-28T03:20:34.204Z,23.62
2018-07-28T03:21:14.777Z,23.51
2018-07-28T03:21:55.325Z,23.63
2018-07-28T03:22:35.989Z,23.62
2018-07-28T03:23:16.558Z,23.54
2018-07-28T03:23:57.118Z,23.56
2018-07-28T03:24:37.688Z,23.59
2018-07-28T03:25:18.342Z,23.58
2018-07-28T03:25:58.903Z,23.55
2018-07-28T03:26:39.473Z,23.55
2018-07-28T03:27:20.053Z,23.58
2018-07-28T03:28:00.630Z,23.58
2018-07-28T03:28:41.179Z,23.59
2018-07-28T03:29:21.755Z,23.54
2018-07-28T03:30:02.391Z,23.51
2018-07-28T03:30:42.978Z,23.59
2018-07-28T03:31:23.553Z,23.56
2018-07-28T03:32:04.100Z,23.61
2018-07-28T03:32:44.688Z,23.61
2018-07-28T03:33:25.241Z,23.56
2018-07-28T03:34:05.888Z,23.58
2018-07-28T03:34:46.469Z,23.62
2018-07-28T03:35:27.036Z,23.56
2018-07-28T03:36:07.616Z,23.58
2018-07-28T03:36:48.169Z,23.65
2018-07-28T03:37:28.738Z,23.63
2018-07-28T03:38:09.313Z,23.61
2018-07-28T03:38:49.879Z,23.68
2018-07-28T03:39:30.453Z,23.65
2018-07-28T03:40:11.034Z,23.63
2018-07-28T03:40:51.599Z,23.62
2018-07-28T03:41:32.158Z,23.61
2018-07-28T03:42:12.754Z,23.63
2018-07-28T03:42:53.368Z,23.59
2018-07-28T03:43:33.950Z,23.65
2018-07-28T03:44:14.503Z,23.61
2018-07-28T03:44:55.074Z,23.62
2018-07-28T03:45:35.666Z,23.66
2018-07-28T03:46:16.241Z,23.61
2018-07-28T03:46:56.810Z,23.56
2018-07-28T03:47:37.383Z,23.5
2018-07-28T03:48:17.949Z,23.63
2018-07-28T03:48:58.525Z,23.56
2018-07-28T03:49:39.105Z,23.55
2018-07-28T03:50:19.664Z,23.51
2018-07-28T03:51:00.264Z,23.58
2018-07-28T03:51:40.812Z,23.55
2018-07-28T03:52:21.376Z,23.58
2018-07-28T03:53:01.997Z,23.61
2018-07-28T03:53:42.583Z,23.56
2018-07-28T03:54:23.155Z,23.62
2018-07-28T03:55:03.780Z,23.58
2018-07-28T03:55:44.341Z,23.56
2018-07-28T03:56:24.931Z,23.62
2018-07-28T03:57:05.478Z,23.54
2018-07-28T03:57:46.042Z,23.58
2018-07-28T03:58:26.696Z,23.61
2018-07-28T03:59:07.273Z,23.63
2018-07-28T03:59:47.837Z,23.62
2018-07-28T04:00:28.401Z,23.63
2018-07-28T04:01:09.001Z,23.66
2018-07-28T04:01:49.608Z,23.69
2018-07-28T04:02:30.175Z,23.62
2018-07-28T04:03:10.809Z,23.62
2018-07-28T04:03:51.385Z,23.59
2018-07-28T04:04:31.974Z,23.61
2018-07-28T04:05:12.549Z,23.63
2018-07-28T04:05:53.100Z,23.63
2018-07-28T04:06:33.717Z,23.63
2018-07-28T04:07:14.277Z,23.68
2018-07-28T04:07:54.841Z,23.65
2018-07-28T04:08:35.416Z,23.69
2018-07-28T04:09:16.155Z,23.66
2018-07-28T04:09:56.716Z,23.59
2018-07-28T04:10:37.274Z,23.63
2018-07-28T04:11:17.859Z,23.65
2018-07-28T04:11:58.461Z,23.66
2018-07-28T04:12:39.010Z,23.62
2018-07-28T04:13:19.637Z,23.62
2018-07-28T04:14:00.205Z,23.62
2018-07-28T04:14:40.774Z,23.54
2018-07-28T04:15:21.356Z,23.56
2018-07-28T04:16:01.919Z,23.58
2018-07-28T04:16:42.481Z,23.54
2018-07-28T04:17:23.061Z,23.59
2018-07-28T04:18:03.617Z,23.62
2018-07-28T04:18:44.188Z,23.59
2018-07-28T04:19:24.763Z,23.55
2018-07-28T04:20:05.338Z,23.61
2018-07-28T04:20:45.892Z,23.51
2018-07-28T04:21:26.454Z,23.63
2018-07-28T04:22:07.034Z,23.44
2018-07-28T04:22:47.557Z,23.5
2018-07-28T04:23:28.129Z,23.48
2018-07-28T04:24:08.689Z,23.54
2018-07-28T04:24:49.275Z,23.5
2018-07-28T04:25:29.839Z,23.54
2018-07-28T04:26:10.405Z,23.46
2018-07-28T04:26:51.039Z,23.37
2018-07-28T04:27:31.615Z,23.48
2018-07-28T04:28:12.184Z,23.37
2018-07-28T04:28:52.753Z,23.43
2018-07-28T04:29:33.447Z,23.44
2018-07-28T04:30:13.920Z,23.43
2018-07-28T04:30:54.494Z,23.41
2018-07-28T04:31:35.040Z,23.43
2018-07-28T04:32:15.604Z,23.46
2018-07-28T04:32:56.190Z,23.5
2018-07-28T04:33:36.759Z,23.41
2018-07-28T04:34:17.319Z,23.32
2018-07-28T04:34:57.951Z,23.43
2018-07-28T04:35:38.515Z,23.39
2018-07-28T04:36:19.092Z,23.37
2018-07-28T04:36:59.703Z,23.32
2018-07-28T04:37:40.249Z,23.37
2018-07-28T04:38:20.824Z,23.31
2018-07-28T04:39:01.399Z,23.31
2018-07-28T04:39:41.970Z,23.36
2018-07-28T04:40:22.535Z,23.28
2018-07-28T04:41:03.110Z,23.36
2018-07-28T04:41:43.678Z,23.37
2018-07-28T04:42:24.232Z,23.39
2018-07-28T04:43:04.796Z,23.36
2018-07-28T04:43:45.373Z,23.37
2018-07-28T04:44:25.949Z,23.34
2018-07-28T04:45:06.527Z,23.41
2018-07-28T04:45:47.113Z,23.4
2018-07-28T04:46:27.681Z,23.34
2018-07-28T04:47:08.274Z,23.37
2018-07-28T04:47:48.880Z,23.48
2018-07-28T04:48:29.444Z,23.48
2018-07-28T04:49:10.016Z,23.54
2018-07-28T04:49:50.580Z,23.54
2018-07-28T04:50:31.151Z,23.47
2018-07-28T04:51:11.711Z,23.51
2018-07-28T04:51:52.280Z,23.51
2018-07-28T04:52:32.829Z,23.59
2018-07-28T04:53:13.408Z,23.58
2018-07-28T04:53:53.970Z,23.55
2018-07-28T04:54:34.541Z,23.59
2018-07-28T04:55:15.109Z,23.51
2018-07-28T04:55:55.694Z,23.54
2018-07-28T04:56:36.274Z,23.56
2018-07-28T04:57:16.841Z,23.58
2018-07-28T04:57:57.506Z,23.62
2018-07-28T04:58:37.997Z,23.62
2018-07-28T04:59:18.565Z,23.63
2018-07-28T04:59:59.134Z,23.59
2018-07-28T05:00:39.709Z,23.66
2018-07-28T05:01:20.281Z,23.63
2018-07-28T05:02:00.855Z,23.66
2018-07-28T05:02:41.441Z,23.59
2018-07-28T05:03:22.015Z,23.56
2018-07-28T05:04:02.572Z,23.58
2018-07-28T05:04:43.150Z,23.56
2018-07-28T05:05:23.725Z,23.59
2018-07-28T05:06:04.287Z,23.59
2018-07-28T05:06:44.864Z,23.62
2018-07-28T05:07:25.507Z,23.56
2018-07-28T05:08:05.990Z,23.46
2018-07-28T05:08:46.556Z,23.48
2018-07-28T05:09:27.126Z,23.46
2018-07-28T05:10:07.688Z,23.48
2018-07-28T05:10:48.251Z,23.44
2018-07-28T05:11:28.824Z,23.46
2018-07-28T05:12:09.404Z,23.5
2018-07-28T05:12:49.972Z,23.5
2018-07-28T05:13:30.536Z,23.59
2018-07-28T05:14:11.109Z,23.59
2018-07-28T05:14:51.684Z,23.54
2018-07-28T05:15:32.241Z,23.61
2018-07-28T05:16:12.821Z,23.61
2018-07-28T05:16:53.381Z,23.5
2018-07-28T05:17:33.960Z,23.55
2018-07-28T05:18:14.535Z,23.62
2018-07-28T05:18:55.098Z,23.56
2018-07-28T05:19:35.661Z,23.51
2018-07-28T05:20:16.226Z,23.63
2018-07-28T05:20:56.777Z,23.66
2018-07-28T05:21:37.353Z,23.65
2018-07-28T05:22:17.929Z,23.62
2018-07-28T05:22:58.566Z,23.69
2018-07-28T05:23:39.205Z,23.73
2018-07-28T05:24:19.719Z,23.63
2018-07-28T05:25:00.283Z,23.73
2018-07-28T05:25:40.900Z,23.71
2018-07-28T05:26:21.453Z,23.76
2018-07-28T05:27:02.015Z,23.78
2018-07-28T05:27:42.618Z,23.83
2018-07-28T05:28:23.194Z,23.84
2018-07-28T05:29:03.766Z,23.81
2018-07-28T05:29:44.383Z,23.87
2018-07-28T05:30:24.906Z,23.86
2018-07-28T05:31:05.480Z,23.91
2018-07-28T05:31:46.071Z,23.91
2018-07-28T05:32:26.633Z,23.95
2018-07-28T05:33:07.213Z,23.88
2018-07-28T05:33:47.788Z,23.91
2018-07-28T05:34:28.348Z,23.95
2018-07-28T05:35:08.924Z,23.91
2018-07-28T05:35:49.538Z,23.98
2018-07-28T05:36:30.119Z,23.93
2018-07-28T05:37:10.724Z,23.92
2018-07-28T05:37:51.253Z,23.96
2018-07-28T05:38:31.856Z,23.96
2018-07-28T05:39:12.435Z,23.93
2018-07-28T05:39:53.014Z,24.03
2018-07-28T05:40:33.608Z,24.02
2018-07-28T05:41:14.180Z,23.99
2018-07-28T05:41:54.753Z,24.14
2018-07-28T05:42:35.350Z,24.13
2018-07-28T05:43:15.916Z,24.17
2018-07-28T05:43:56.493Z,24.2
2018-07-28T05:44:37.065Z,24.35
2018-07-28T05:45:17.622Z,24.35
2018-07-28T05:45:58.187Z,24.57
2018-07-28T05:46:38.780Z,24.63
2018-07-28T05:47:19.343Z,24.65
2018-07-28T05:47:59.967Z,24.74
2018-07-28T05:48:40.499Z,24.84
2018-07-28T05:49:21.080Z,24.99
2018-07-28T05:50:01.669Z,25.06
2018-07-28T05:50:42.370Z,25.01
2018-07-28T05:51:22.833Z,25.08
2018-07-28T05:52:03.409Z,25.16
2018-07-28T05:52:43.992Z,25.22
2018-07-28T05:53:24.549Z,25.4
2018-07-28T05:54:05.136Z,25.4
2018-07-28T05:54:45.689Z,25.48
2018-07-28T05:55:26.278Z,25.5
2018-07-28T05:56:06.839Z,25.68
2018-07-28T05:56:47.412Z,25.83
2018-07-28T05:57:27.991Z,25.95
2018-07-28T05:58:08.580Z,25.85
2018-07-28T05:58:49.154Z,25.93
2018-07-28T05:59:29.729Z,26.07
2018-07-28T06:00:10.311Z,26.16
2018-07-28T06:00:50.928Z,26.16
2018-07-28T06:01:31.510Z,26.23
2018-07-28T06:02:12.139Z,26.09
2018-07-28T06:02:52.744Z,26.28
2018-07-28T06:03:33.244Z,26.33
2018-07-28T06:04:13.819Z,26.37
2018-07-28T06:04:54.388Z,26.55
2018-07-28T06:05:34.981Z,26.52
2018-07-28T06:06:15.589Z,26.59
2018-07-28T06:06:56.168Z,26.62
2018-07-28T06:07:36.738Z,26.71
2018-07-28T06:08:17.406Z,26.73
2018-07-28T06:08:57.979Z,26.78
2018-07-28T06:09:38.563Z,26.83
2018-07-28T06:10:19.138Z,26.89
2018-07-28T06:10:59.751Z,26.95
2018-07-28T06:11:40.322Z,27.08
2018-07-28T06:12:20.901Z,27.17
2018-07-28T06:13:01.475Z,27.15
2018-07-28T06:13:42.061Z,27.29
2018-07-28T06:14:22.645Z,27.4
2018-07-28T06:15:03.217Z,27.48
2018-07-28T06:15:43.810Z,27.37
2018-07-28T06:16:24.394Z,27.55
2018-07-28T06:17:04.965Z,27.51
2018-07-28T06:17:45.523Z,27.49
2018-07-28T06:18:26.141Z,27.6
2018-07-28T06:19:06.716Z,27.58
2018-07-28T06:19:47.297Z,27.6
2018-07-28T06:20:27.857Z,27.64
2018-07-28T06:21:08.450Z,27.71
2018-07-28T06:21:49.029Z,27.77
2018-07-28T06:22:29.621Z,27.85
2018-07-28T06:23:10.256Z,27.82
2018-07-28T06:23:50.879Z,27.93
2018-07-28T06:24:31.438Z,27.93
2018-07-28T06:25:11.996Z,27.98
2018-07-28T06:25:52.678Z,28.04
2018-07-28T06:26:33.221Z,28
2018-07-28T06:27:13.794Z,28.11
2018-07-28T06:27:54.380Z,28.17
2018-07-28T06:28:34.945Z,28.25
2018-07-28T06:29:15.522Z,28.3
2018-07-28T06:29:56.106Z,28.3
2018-07-28T06:30:36.708Z,28.41
2018-07-28T06:31:17.302Z,28.48
2018-07-28T06:31:57.902Z,28.47
2018-07-28T06:32:38.460Z,28.52
2018-07-28T06:33:19.035Z,28.59
2018-07-28T06:33:59.611Z,28.59
2018-07-28T06:34:40.191Z,28.62
2018-07-28T06:35:20.770Z,28.7
2018-07-28T06:36:01.424Z,28.67
2018-07-28T06:36:42.058Z,28.64
2018-07-28T06:37:22.644Z,28.78
2018-07-28T06:38:03.224Z,28.82
2018-07-28T06:38:43.814Z,28.88
2018-07-28T06:39:24.421Z,28.84
2018-07-28T06:40:04.979Z,28.85
2018-07-28T06:40:45.559Z,28.89
2018-07-28T06:41:26.123Z,28.89
2018-07-28T06:42:06.697Z,28.91
2018-07-28T06:42:47.273Z,28.98
2018-07-28T06:43:27.853Z,29.01
2018-07-28T06:44:08.418Z,29.1
2018-07-28T06:44:49.004Z,29.17
2018-07-28T06:45:29.583Z,29.2
2018-07-28T06:46:10.238Z,29.19
2018-07-28T06:46:50.859Z,29.2
2018-07-28T06:47:31.448Z,29.17
2018-07-28T06:48:12.069Z,29.14
2018-07-28T06:48:52.690Z,29.12
2018-07-28T06:49:33.244Z,29.14
2018-07-28T06:50:13.827Z,29.02
2018-07-28T06:50:54.398Z,28.98
2018-07-28T06:51:34.977Z,29.01
2018-07-28T06:52:15.556Z,28.97
2018-07-28T06:52:56.132Z,29.07
2018-07-28T06:53:36.770Z,29.13
2018-07-28T06:54:17.313Z,29.16
2018-07-28T06:54:57.908Z,29.22
2018-07-28T06:55:38.488Z,29.27
2018-07-28T06:56:19.045Z,29.26
2018-07-28T06:56:59.609Z,29.38
2018-07-28T06:57:40.188Z,29.27
2018-07-28T06:58:20.772Z,29.5
2018-07-28T06:59:01.366Z,29.44
2018-07-28T06:59:41.949Z,29.49
2018-07-28T07:00:22.521Z,29.49
2018-07-28T07:01:03.110Z,29.61
2018-07-28T07:01:43.798Z,29.56
2018-07-28T07:02:24.367Z,29.72
2018-07-28T07:03:04.951Z,29.66
2018-07-28T07:03:45.537Z,29.69
2018-07-28T07:04:26.100Z,29.75
2018-07-28T07:05:06.676Z,29.69
2018-07-28T07:05:47.267Z,29.78
2018-07-28T07:06:27.856Z,29.81
2018-07-28T07:07:08.447Z,29.71
2018-07-28T07:07:49.026Z,29.71
2018-07-28T07:08:29.603Z,29.75
2018-07-28T07:09:10.183Z,29.65
2018-07-28T07:09:50.752Z,29.66
2018-07-28T07:10:31.362Z,29.71
2018-07-28T07:11:11.967Z,29.72
2018-07-28T07:11:52.562Z,29.78
2018-07-28T07:12:33.184Z,29.69
2018-07-28T07:13:13.787Z,29.66
2018-07-28T07:13:54.428Z,29.59
2018-07-28T07:14:35.027Z,29.6
2018-07-28T07:15:15.589Z,29.6
2018-07-28T07:15:56.158Z,29.65
2018-07-28T07:16:36.818Z,29.57
2018-07-28T07:17:17.312Z,29.57
2018-07-28T07:17:58.055Z,29.63
2018-07-28T07:18:38.640Z,29.65
2018-07-28T07:19:19.433Z,29.66
2018-07-28T07:20:00.053Z,29.65
2018-07-28T07:20:40.641Z,29.69
2018-07-28T07:21:21.222Z,29.71
2018-07-28T07:22:01.825Z,29.76
2018-07-28T07:22:42.371Z,29.82
2018-07-28T07:23:22.947Z,29.87
2018-07-28T07:24:03.553Z,29.93
2018-07-28T07:24:44.212Z,29.84
2018-07-28T07:25:24.733Z,29.9
2018-07-28T07:26:05.308Z,30.05
2018-07-28T07:26:45.926Z,29.98
2018-07-28T07:27:26.492Z,30
2018-07-28T07:28:07.061Z,30.09
2018-07-28T07:28:47.629Z,30.16
2018-07-28T07:29:28.244Z,30.19
2018-07-28T07:30:08.832Z,30.21
2018-07-28T07:30:49.616Z,30.3
2018-07-28T07:31:30.194Z,30.31
2018-07-28T07:32:10.775Z,30.27
2018-07-28T07:32:51.385Z,30.3
2018-07-28T07:33:32.020Z,30.19
2018-07-28T07:34:12.595Z,30.44
2018-07-28T07:34:53.192Z,30.43
2018-07-28T07:35:33.935Z,30.34
2018-07-28T07:36:14.684Z,30.37
2018-07-28T07:36:55.220Z,30.44
2018-07-28T07:37:35.786Z,30.4
2018-07-28T07:38:16.404Z,30.4
2018-07-28T07:38:57.063Z,30.32
2018-07-28T07:39:37.640Z,30.31
2018-07-28T07:40:18.229Z,30.28
2018-07-28T07:40:58.818Z,30.28
2018-07-28T07:41:39.469Z,30.28
2018-07-28T07:42:20.026Z,30.35
2018-07-28T07:43:00.600Z,30.4
2018-07-28T07:43:41.241Z,30.43
2018-07-28T07:44:21.816Z,30.51
2018-07-28T07:45:02.402Z,30.55
2018-07-28T07:45:42.983Z,30.55
2018-07-28T07:46:23.558Z,30.69
2018-07-28T07:47:04.147Z,30.72
2018-07-28T07:47:44.754Z,30.66
2018-07-28T07:48:25.479Z,30.59
2018-07-28T07:49:05.956Z,30.66
2018-07-28T07:49:46.542Z,30.68
2018-07-28T07:50:27.142Z,30.63
2018-07-28T07:51:07.716Z,30.69
2018-07-28T07:51:48.299Z,30.75
2018-07-28T07:52:28.876Z,30.77
2018-07-28T07:53:09.492Z,30.77
2018-07-28T07:53:50.136Z,30.78
2018-07-28T07:54:30.654Z,30.88
2018-07-28T07:55:11.256Z,30.83
2018-07-28T07:55:51.829Z,30.85
2018-07-28T07:56:32.428Z,30.88
2018-07-28T07:57:13.020Z,30.96
2018-07-28T07:57:53.582Z,30.84
2018-07-28T07:58:34.300Z,30.94
2018-07-28T07:59:14.910Z,30.92
2018-07-28T07:59:55.464Z,31.02
2018-07-28T08:00:36.037Z,30.92
2018-07-28T08:01:16.889Z,30.9
2018-07-28T08:01:57.425Z,30.88
2018-07-28T08:02:37.974Z,30.85
2018-07-28T08:03:18.539Z,30.84
2018-07-28T08:03:59.122Z,30.8
2018-07-28T08:04:39.703Z,30.81
2018-07-28T08:05:20.364Z,30.81
2018-07-28T08:06:00.988Z,30.81
2018-07-28T08:06:41.588Z,30.83
2018-07-28T08:07:22.197Z,30.9
2018-07-28T08:08:02.761Z,30.88
2018-07-28T08:08:43.350Z,30.81
2018-07-28T08:09:23.957Z,30.84
2018-07-28T08:10:04.532Z,30.85
2018-07-28T08:10:45.125Z,30.84
2018-07-28T08:11:25.725Z,30.91
2018-07-28T08:12:06.514Z,30.85
2018-07-28T08:12:47.267Z,30.88
2018-07-28T08:13:27.673Z,30.87
2018-07-28T08:14:08.266Z,30.87
2018-07-28T08:14:48.847Z,30.85
2018-07-28T08:15:29.443Z,30.88
2018-07-28T08:16:10.200Z,30.84
2018-07-28T08:16:50.750Z,30.87
2018-07-28T08:17:31.358Z,30.88
2018-07-28T08:18:11.989Z,30.9
2018-07-28T08:18:52.704Z,30.77
2018-07-28T08:19:33.198Z,30.78
2018-07-28T08:20:13.757Z,30.78
2018-07-28T08:20:54.341Z,30.77
2018-07-28T08:21:34.940Z,30.75
2018-07-28T08:22:15.517Z,30.75
2018-07-28T08:22:56.114Z,30.78
2018-07-28T08:23:36.671Z,30.73
2018-07-28T08:24:17.264Z,30.78
2018-07-28T08:24:57.846Z,30.77
2018-07-28T08:25:38.411Z,30.84
2018-07-28T08:26:18.984Z,30.84
2018-07-28T08:26:59.568Z,30.88
2018-07-28T08:27:40.149Z,30.83
2018-07-28T08:28:20.730Z,30.84
2018-07-28T08:29:01.310Z,30.87
2018-07-28T08:29:41.952Z,30.84
2018-07-28T08:30:22.497Z,30.87
2018-07-28T08:31:03.076Z,30.87
2018-07-28T08:31:43.670Z,30.9
2018-07-28T08:32:24.260Z,30.83
2018-07-28T08:33:04.836Z,30.88
2018-07-28T08:33:45.449Z,30.87
2018-07-28T08:34:26.019Z,30.88
2018-07-28T08:35:06.597Z,30.81
2018-07-28T08:35:47.173Z,30.78
2018-07-28T08:36:27.739Z,30.77
2018-07-28T08:37:08.325Z,30.81
2018-07-28T08:37:48.924Z,30.73
2018-07-28T08:38:29.505Z,30.65
2018-07-28T08:39:10.102Z,30.54
2018-07-28T08:39:50.697Z,30.48
2018-07-28T08:40:31.277Z,30.55
2018-07-28T08:41:11.846Z,30.5
2018-07-28T08:41:52.402Z,30.39
2018-07-28T08:42:32.970Z,30.34
2018-07-28T08:43:13.526Z,30.46
2018-07-28T08:43:54.069Z,30.37